createdAt,value
2018-07-05T00:00:04.259Z,0.00
2018-07-05T00:01:04.250Z,0.00
2018-07-05T00:02:04.247Z,0.00
2018-07-05T00:03:04.224Z,0.00
2018-07-05T00:04:04.219Z,0.00
2018-07-05T00:05:04.207Z,0.00
2018-07-05T00:06:04.199Z,0.00
2018-07-05T00:07:04.188Z,0.00
2018-07-05T00:08:04.175Z,0.00
2018-07-05T00:09:04.182Z,0.00
2018-07-05T00:10:04.148Z,0.00
2018-07-05T00:11:04.138Z,0.00
2018-07-05T00:12:04.129Z,0.00
2018-07-05T00:13:04.125Z,0.00
2018-07-05T00:14:04.149Z,0.00
2018-07-05T00:15:04.102Z,0.00
2018-07-05T00:16:04.089Z,0.00
2018-07-05T00:17:04.078Z,0.00
2018-07-05T00:18:04.080Z,0.00
2018-07-05T00:19:04.059Z,0.00
2018-07-05T00:20:04.050Z,0.00
2018-07-05T00:21:04.033Z,0.00
2018-07-05T00:22:04.021Z,0.00
2018-07-05T00:23:04.010Z,0.00
2018-07-05T00:24:04.006Z,0.00
2018-07-05T00:25:04.010Z,0.00
2018-07-05T00:26:03.983Z,0.00
2018-07-05T00:27:03.975Z,0.00
2018-07-05T00:28:03.960Z,0.00
2018-07-05T00:29:03.947Z,0.00
2018-07-05T00:30:03.960Z,0.00
2018-07-05T00:31:03.923Z,0.00
2018-07-05T00:32:03.911Z,0.00
2018-07-05T00:33:03.907Z,0.00
2018-07-05T00:34:03.896Z,0.00
2018-07-05T00:35:03.878Z,0.00
2018-07-05T00:36:03.871Z,0.00
2018-07-05T00:37:03.863Z,0.00
2018-07-05T00:38:03.852Z,0.00
2018-07-05T00:39:03.888Z,0.00
2018-07-05T00:40:03.827Z,0.00
2018-07-05T00:41:03.828Z,0.00
2018-07-05T00:42:03.802Z,0.00
2018-07-05T00:43:03.790Z,0.00
2018-07-05T00:44:03.781Z,0.00
2018-07-05T00:45:03.774Z,0.00
2018-07-05T00:46:03.795Z,0.00
2018-07-05T00:47:03.752Z,0.00
2018-07-05T00:48:03.740Z,0.00
2018-07-05T00:49:03.743Z,0.00
2018-07-05T00:50:03.714Z,0.00
2018-07-05T00:51:03.709Z,0.00
2018-07-05T00:52:03.698Z,0.00
2018-07-05T00:53:03.686Z,0.00
2018-07-05T00:54:03.671Z,0.00
2018-07-05T00:55:03.660Z,0.00
2018-07-05T00:56:03.650Z,0.00
2018-07-05T00:57:03.662Z,0.00
2018-07-05T00:58:03.664Z,0.00
2018-07-05T00:59:03.622Z,0.00
2018-07-05T01:00:03.613Z,0.00
2018-07-05T01:01:03.594Z,0.00
2018-07-05T01:02:03.618Z,0.00
2018-07-05T01:03:03.575Z,0.00
2018-07-05T01:04:03.569Z,0.00
2018-07-05T01:05:03.561Z,0.00
2018-07-05T01:06:03.553Z,0.00
2018-07-05T01:07:03.533Z,0.00
2018-07-05T01:08:03.522Z,0.00
2018-07-05T01:09:03.515Z,0.00
2018-07-05T01:10:03.502Z,0.00
2018-07-05T01:11:03.491Z,0.00
2018-07-05T01:12:03.483Z,0.00
2018-07-05T01:13:03.470Z,0.00
2018-07-05T01:14:03.458Z,0.00
2018-07-05T01:15:03.447Z,0.00
2018-07-05T01:16:03.433Z,0.00
2018-07-05T01:17:03.431Z,0.00
2018-07-05T01:18:03.449Z,0.00
2018-07-05T01:19:03.405Z,0.00
2018-07-05T01:20:03.396Z,0.00
2018-07-05T01:21:03.394Z,0.00
2018-07-05T01:22:03.371Z,0.00
2018-07-05T01:23:03.362Z,0.00
2018-07-05T01:24:03.356Z,0.00
2018-07-05T01:25:03.342Z,0.00
2018-07-05T01:26:03.331Z,0.00
2018-07-05T01:27:03.319Z,0.00
2018-07-05T01:28:03.309Z,0.00
2018-07-05T01:29:03.359Z,0.00
2018-07-05T01:30:03.303Z,0.00
2018-07-05T01:31:03.274Z,0.00
2018-07-05T01:32:03.260Z,0.00
2018-07-05T01:33:03.256Z,0.00
2018-07-05T01:34:03.244Z,0.00
2018-07-05T01:35:03.254Z,0.00
2018-07-05T01:36:03.223Z,0.00
2018-07-05T01:37:03.206Z,0.00
2018-07-05T01:38:03.205Z,0.00
2018-07-05T01:39:03.189Z,0.00
2018-07-05T01:40:03.209Z,0.00
2018-07-05T01:41:03.163Z,0.00
2018-07-05T01:42:03.155Z,0.00
2018-07-05T01:43:03.145Z,0.00
2018-07-05T01:44:03.131Z,0.00
2018-07-05T01:45:03.126Z,0.00
2018-07-05T01:46:03.117Z,0.00
2018-07-05T01:47:03.102Z,0.00
2018-07-05T01:48:03.093Z,0.00
2018-07-05T01:49:03.075Z,0.00
2018-07-05T01:50:03.067Z,0.00
2018-07-05T01:51:03.074Z,0.00
2018-07-05T01:52:03.042Z,0.00
2018-07-05T01:53:03.037Z,0.00
2018-07-05T01:54:03.026Z,0.00
2018-07-05T01:55:03.010Z,0.00
2018-07-05T01:56:03.023Z,0.00
2018-07-05T01:57:02.997Z,0.00
2018-07-05T01:58:02.981Z,0.00
2018-07-05T01:59:02.969Z,0.00
2018-07-05T02:00:02.983Z,0.00
2018-07-05T02:01:02.946Z,0.00
2018-07-05T02:02:02.936Z,0.00
2018-07-05T02:03:02.925Z,0.00
2018-07-05T02:04:02.911Z,0.00
2018-07-05T02:05:02.907Z,0.00
2018-07-05T02:06:02.912Z,0.00
2018-07-05T02:07:02.904Z,0.00
2018-07-05T02:08:02.873Z,0.00
2018-07-05T02:09:02.857Z,0.00
2018-07-05T02:10:02.848Z,0.00
2018-07-05T02:11:02.842Z,0.00
2018-07-05T02:12:02.861Z,0.00
2018-07-05T02:13:02.812Z,0.00
2018-07-05T02:14:02.806Z,0.00
2018-07-05T02:15:02.799Z,0.00
2018-07-05T02:16:02.779Z,0.00
2018-07-05T02:17:02.775Z,0.00
2018-07-05T02:18:02.764Z,0.00
2018-07-05T02:19:02.796Z,0.00
2018-07-05T02:20:02.743Z,0.00
2018-07-05T02:21:02.726Z,0.00
2018-07-05T02:22:02.716Z,0.00
2018-07-05T02:23:02.728Z,0.00
2018-07-05T02:24:02.692Z,0.00
2018-07-05T02:25:02.688Z,0.00
2018-07-05T02:26:02.673Z,0.00
2018-07-05T02:27:02.661Z,0.00
2018-07-05T02:28:02.666Z,0.00
2018-07-05T02:29:02.642Z,0.00
2018-07-05T02:30:02.642Z,0.00
2018-07-05T02:31:02.620Z,0.00
2018-07-05T02:32:02.609Z,0.00
2018-07-05T02:33:02.618Z,0.00
2018-07-05T02:34:02.582Z,0.00
2018-07-05T02:35:02.581Z,0.00
2018-07-05T02:36:02.564Z,0.00
2018-07-05T02:37:02.552Z,0.00
2018-07-05T02:38:02.539Z,0.00
2018-07-05T02:39:02.529Z,0.00
2018-07-05T02:40:02.520Z,0.00
2018-07-05T02:41:02.502Z,0.00
2018-07-05T02:42:02.492Z,0.00
2018-07-05T02:43:02.485Z,0.00
2018-07-05T02:44:02.493Z,0.00
2018-07-05T02:45:02.457Z,0.00
2018-07-05T02:46:02.448Z,0.00
2018-07-05T02:47:02.438Z,0.00
2018-07-05T02:48:02.423Z,0.00
2018-07-05T02:49:02.455Z,0.00
2018-07-05T02:50:02.412Z,0.00
2018-07-05T02:51:02.395Z,0.00
2018-07-05T02:52:02.387Z,0.00
2018-07-05T02:53:02.368Z,0.00
2018-07-05T02:54:02.359Z,0.00
2018-07-05T02:55:02.351Z,0.00
2018-07-05T02:56:02.334Z,0.00
2018-07-05T02:57:02.330Z,0.00
2018-07-05T02:58:02.315Z,0.00
2018-07-05T02:59:02.302Z,0.00
2018-07-05T03:00:02.313Z,0.00
2018-07-05T03:01:02.285Z,0.00
2018-07-05T03:02:02.272Z,0.00
2018-07-05T03:03:02.261Z,0.00
2018-07-05T03:04:02.252Z,0.00
2018-07-05T03:05:02.253Z,0.00
2018-07-05T03:06:02.225Z,0.00
2018-07-05T03:07:02.214Z,0.00
2018-07-05T03:08:02.200Z,0.00
2018-07-05T03:09:02.219Z,0.00
2018-07-05T03:10:02.257Z,0.00
2018-07-05T03:11:02.219Z,0.00
2018-07-05T03:12:02.213Z,0.00
2018-07-05T03:13:02.144Z,0.00
2018-07-05T03:14:02.136Z,0.00
2018-07-05T03:15:02.128Z,0.00
2018-07-05T03:16:02.120Z,0.00
2018-07-05T03:17:02.103Z,0.00
2018-07-05T03:18:02.090Z,0.00
2018-07-05T03:19:02.079Z,0.00
2018-07-05T03:20:02.067Z,0.00
2018-07-05T03:21:02.083Z,0.00
2018-07-05T03:22:02.048Z,0.00
2018-07-05T03:23:02.036Z,0.00
2018-07-05T03:24:02.036Z,0.00
2018-07-05T03:25:02.012Z,0.00
2018-07-05T03:26:02.027Z,0.00
2018-07-05T03:27:01.992Z,0.00
2018-07-05T03:28:01.980Z,0.00
2018-07-05T03:29:01.972Z,0.00
2018-07-05T03:30:01.960Z,0.00
2018-07-05T03:31:01.946Z,0.00
2018-07-05T03:32:01.934Z,0.00
2018-07-05T03:33:01.932Z,0.00
2018-07-05T03:34:01.916Z,0.00
2018-07-05T03:35:01.919Z,0.00
2018-07-05T03:36:01.901Z,0.00
2018-07-05T03:37:01.900Z,0.00
2018-07-05T03:38:01.870Z,0.00
2018-07-05T03:39:01.859Z,0.00
2018-07-05T03:40:01.872Z,0.00
2018-07-05T03:41:01.840Z,0.00
2018-07-05T03:42:01.853Z,0.00
2018-07-05T03:43:01.817Z,0.00
2018-07-05T03:44:01.807Z,0.00
2018-07-05T03:45:01.791Z,0.00
2018-07-05T03:46:01.781Z,0.00
2018-07-05T03:47:01.772Z,0.00
2018-07-05T03:48:01.767Z,0.00
2018-07-05T03:49:01.745Z,0.00
2018-07-05T03:50:01.737Z,0.00
2018-07-05T03:51:01.726Z,0.00
2018-07-05T03:52:01.733Z,0.00
2018-07-05T03:53:01.728Z,0.00
2018-07-05T03:54:01.695Z,0.00
2018-07-05T03:55:01.706Z,0.00
2018-07-05T03:56:01.677Z,0.00
2018-07-05T03:57:01.657Z,0.00
2018-07-05T03:58:01.677Z,0.00
2018-07-05T03:59:01.650Z,0.00
2018-07-05T04:00:01.624Z,0.00
2018-07-05T04:01:01.620Z,0.00
2018-07-05T04:02:01.607Z,0.00
2018-07-05T04:03:01.595Z,0.00
2018-07-05T04:04:01.583Z,0.00
2018-07-05T04:05:01.581Z,0.00
2018-07-05T04:06:01.566Z,0.00
2018-07-05T04:07:01.553Z,0.00
2018-07-05T04:08:01.546Z,0.00
2018-07-05T04:09:01.547Z,0.00
2018-07-05T04:10:01.537Z,0.00
2018-07-05T04:11:01.508Z,0.00
2018-07-05T04:12:01.496Z,0.00
2018-07-05T04:13:01.490Z,0.00
2018-07-05T04:14:01.504Z,0.00
2018-07-05T04:15:01.469Z,0.00
2018-07-05T04:16:01.459Z,0.00
2018-07-05T04:17:01.441Z,0.00
2018-07-05T04:18:01.442Z,0.00
2018-07-05T04:19:01.425Z,0.00
2018-07-05T04:20:01.455Z,0.00
2018-07-05T04:21:01.398Z,0.00
2018-07-05T04:22:01.388Z,0.00
2018-07-05T04:23:01.378Z,0.00
2018-07-05T04:24:01.420Z,0.00
2018-07-05T04:25:01.406Z,0.00
2018-07-05T04:26:01.348Z,0.00
2018-07-05T04:27:01.337Z,0.00
2018-07-05T04:28:01.328Z,0.00
2018-07-05T04:29:01.330Z,0.00
2018-07-05T04:30:01.301Z,0.00
2018-07-05T04:31:01.354Z,0.00
2018-07-05T04:32:01.318Z,0.00
2018-07-05T04:33:01.273Z,0.00
2018-07-05T04:34:01.289Z,0.00
2018-07-05T04:35:01.246Z,0.00
2018-07-05T04:36:01.232Z,0.00
2018-07-05T04:37:01.231Z,0.00
2018-07-05T04:38:01.259Z,0.00
2018-07-05T04:39:01.209Z,0.00
2018-07-05T04:40:01.196Z,0.00
2018-07-05T04:41:01.186Z,0.00
2018-07-05T04:42:01.168Z,0.00
2018-07-05T04:43:01.156Z,0.00
2018-07-05T04:44:01.143Z,0.00
2018-07-05T04:45:01.162Z,0.00
2018-07-05T04:46:01.125Z,0.00
2018-07-05T04:47:01.113Z,0.00
2018-07-05T04:48:01.131Z,0.00
2018-07-05T04:49:01.129Z,0.00
2018-07-05T04:50:01.097Z,0.00
2018-07-05T04:51:01.068Z,0.00
2018-07-05T04:52:01.060Z,0.00
2018-07-05T04:53:01.053Z,0.00
2018-07-05T04:54:01.033Z,0.00
2018-07-05T04:55:01.050Z,0.00
2018-07-05T04:56:01.009Z,0.00
2018-07-05T04:57:01.010Z,0.00
2018-07-05T04:58:00.995Z,0.00
2018-07-05T04:59:00.984Z,0.00
2018-07-05T05:00:00.972Z,0.00
2018-07-05T05:01:00.957Z,0.00
2018-07-05T05:02:00.991Z,0.00
2018-07-05T05:03:00.934Z,0.00
2018-07-05T05:04:00.923Z,0.00
2018-07-05T05:05:00.915Z,0.00
2018-07-05T05:06:00.904Z,0.00
2018-07-05T05:07:00.890Z,0.00
2018-07-05T05:08:00.875Z,0.00
2018-07-05T05:09:00.871Z,0.00
2018-07-05T05:10:00.863Z,0.00
2018-07-05T05:11:00.869Z,0.00
2018-07-05T05:12:00.838Z,0.00
2018-07-05T05:13:00.826Z,0.00
2018-07-05T05:14:00.811Z,0.00
2018-07-05T05:15:00.814Z,0.00
2018-07-05T05:16:00.823Z,0.00
2018-07-05T05:17:00.778Z,0.00
2018-07-05T05:18:00.764Z,0.00
2018-07-05T05:19:00.760Z,0.00
2018-07-05T05:20:00.744Z,0.00
2018-07-05T05:21:00.736Z,0.00
2018-07-05T05:22:00.729Z,0.00
2018-07-05T05:23:00.712Z,0.00
2018-07-05T05:24:00.700Z,0.00
2018-07-05T05:25:00.692Z,0.00
2018-07-05T05:26:00.682Z,0.00
2018-07-05T05:27:00.691Z,0.00
2018-07-05T05:28:00.658Z,0.00
2018-07-05T05:29:00.645Z,0.00
2018-07-05T05:30:00.694Z,0.00
2018-07-05T05:31:00.620Z,0.00
2018-07-05T05:32:00.636Z,0.00
2018-07-05T05:33:00.612Z,0.00
2018-07-05T05:34:00.593Z,0.00
2018-07-05T05:35:00.595Z,0.00
2018-07-05T05:36:00.574Z,0.00
2018-07-05T05:37:00.583Z,0.00
2018-07-05T05:38:00.545Z,0.00
2018-07-05T05:39:00.593Z,0.00
2018-07-05T05:40:00.524Z,0.00
2018-07-05T05:41:00.512Z,0.00
2018-07-05T05:42:00.497Z,0.00
2018-07-05T05:43:00.489Z,0.00
2018-07-05T05:44:00.479Z,0.00
2018-07-05T05:45:00.470Z,0.00
2018-07-05T05:46:00.461Z,0.00
2018-07-05T05:47:00.449Z,0.00
2018-07-05T05:48:00.484Z,0.00
2018-07-05T05:49:00.423Z,0.00
2018-07-05T05:50:00.409Z,0.00
2018-07-05T05:51:00.399Z,0.00
2018-07-05T05:52:00.390Z,0.00
2018-07-05T05:53:00.411Z,0.00
2018-07-05T05:54:00.372Z,0.00
2018-07-05T05:55:00.368Z,0.00
2018-07-05T05:56:00.350Z,0.00
2018-07-05T05:57:00.336Z,0.00
2018-07-05T05:58:00.328Z,0.00
2018-07-05T05:59:00.318Z,0.00
2018-07-05T06:00:00.302Z,0.00
2018-07-05T06:01:00.304Z,32.00
2018-07-05T06:02:00.277Z,28.00
2018-07-05T06:03:00.265Z,28.00
2018-07-05T06:04:00.274Z,28.00
2018-07-05T06:05:00.266Z,28.00
2018-07-05T06:06:00.239Z,28.00
2018-07-05T06:07:00.228Z,28.00
2018-07-05T06:08:00.221Z,28.00
2018-07-05T06:09:00.239Z,28.00
2018-07-05T06:10:00.187Z,28.00
2018-07-05T06:11:00.183Z,28.00
2018-07-05T06:12:00.168Z,32.00
2018-07-05T06:13:00.157Z,32.00
2018-07-05T06:14:00.170Z,32.00
2018-07-05T06:15:00.131Z,32.00
2018-07-05T06:16:00.122Z,32.00
2018-07-05T06:17:00.115Z,36.00
2018-07-05T06:18:00.107Z,36.00
2018-07-05T06:19:00.094Z,40.00
2018-07-05T06:20:00.084Z,36.00
2018-07-05T06:21:00.067Z,36.00
2018-07-05T06:22:00.062Z,36.00
2018-07-05T06:23:00.042Z,36.00
2018-07-05T06:24:00.035Z,36.00
2018-07-05T06:25:00.048Z,36.00
2018-07-05T06:26:00.027Z,36.00
2018-07-05T06:26:59.998Z,36.00
2018-07-05T06:27:59.989Z,36.00
2018-07-05T06:28:59.981Z,32.00
2018-07-05T06:29:59.999Z,32.00
2018-07-05T06:30:59.960Z,36.00
2018-07-05T06:31:59.947Z,36.00
2018-07-05T06:32:59.932Z,36.00
2018-07-05T06:33:59.928Z,36.00
2018-07-05T06:34:59.912Z,40.00
2018-07-05T06:35:59.903Z,48.00
2018-07-05T06:36:59.891Z,44.00
2018-07-05T06:37:59.882Z,48.00
2018-07-05T06:38:59.876Z,48.00
2018-07-05T06:39:59.889Z,48.00
2018-07-05T06:40:59.863Z,48.00
2018-07-05T06:41:59.832Z,48.00
2018-07-05T06:42:59.829Z,48.00
2018-07-05T06:43:59.816Z,48.00
2018-07-05T06:44:59.808Z,48.00
2018-07-05T06:45:59.812Z,44.00
2018-07-05T06:46:59.776Z,40.00
2018-07-05T06:47:59.768Z,36.00
2018-07-05T06:48:59.759Z,32.00
2018-07-05T06:49:59.750Z,28.00
2018-07-05T06:50:59.739Z,24.00
2018-07-05T06:51:59.728Z,24.00
2018-07-05T06:52:59.734Z,24.00
2018-07-05T06:53:59.700Z,24.00
2018-07-05T06:54:59.690Z,20.00
2018-07-05T06:55:59.681Z,20.00
2018-07-05T06:56:59.692Z,24.00
2018-07-05T06:57:59.666Z,20.00
2018-07-05T06:58:59.646Z,20.00
2018-07-05T06:59:59.637Z,20.00
2018-07-05T07:00:59.629Z,20.00
2018-07-05T07:01:59.639Z,16.00
2018-07-05T07:02:59.611Z,16.00
2018-07-05T07:03:59.597Z,16.00
2018-07-05T07:04:59.583Z,16.00
2018-07-05T07:05:59.571Z,12.00
2018-07-05T07:06:59.588Z,12.00
2018-07-05T07:07:59.584Z,12.00
2018-07-05T07:08:59.540Z,16.00
2018-07-05T07:09:59.532Z,12.00
2018-07-05T07:10:59.527Z,12.00
2018-07-05T07:11:59.507Z,12.00
2018-07-05T07:12:59.495Z,8.00
2018-07-05T07:13:59.485Z,8.00
2018-07-05T07:14:59.477Z,12.00
2018-07-05T07:15:59.490Z,12.00
2018-07-05T07:16:59.449Z,8.00
2018-07-05T07:17:59.439Z,8.00
2018-07-05T07:18:59.427Z,8.00
2018-07-05T07:19:59.420Z,8.00
2018-07-05T07:20:59.407Z,8.00
2018-07-05T07:21:59.398Z,8.00
2018-07-05T07:22:59.404Z,8.00
2018-07-05T07:23:59.374Z,8.00
2018-07-05T07:24:59.362Z,8.00
2018-07-05T07:25:59.347Z,8.00
2018-07-05T07:26:59.337Z,8.00
2018-07-05T07:27:59.348Z,12.00
2018-07-05T07:28:59.325Z,12.00
2018-07-05T07:29:59.312Z,12.00
2018-07-05T07:30:59.298Z,12.00
2018-07-05T07:31:59.393Z,12.00
2018-07-05T07:32:59.306Z,12.00
2018-07-05T07:33:59.270Z,8.00
2018-07-05T07:34:59.259Z,8.00
2018-07-05T07:35:59.245Z,8.00
2018-07-05T07:36:59.236Z,8.00
2018-07-05T07:37:59.221Z,8.00
2018-07-05T07:38:59.211Z,12.00
2018-07-05T07:39:59.200Z,12.00
2018-07-05T07:40:59.225Z,12.00
2018-07-05T07:41:59.184Z,12.00
2018-07-05T07:42:59.173Z,8.00
2018-07-05T07:43:59.167Z,12.00
2018-07-05T07:44:59.179Z,12.00
2018-07-05T07:45:59.133Z,12.00
2018-07-05T07:46:59.132Z,16.00
2018-07-05T07:47:59.117Z,12.00
2018-07-05T07:48:59.106Z,16.00
2018-07-05T07:49:59.092Z,12.00
2018-07-05T07:50:59.094Z,16.00
2018-07-05T07:51:59.069Z,16.00
2018-07-05T07:52:59.065Z,20.00
2018-07-05T07:53:59.055Z,20.00
2018-07-05T07:54:59.042Z,20.00
2018-07-05T07:55:59.042Z,24.00
2018-07-05T07:56:59.017Z,24.00
2018-07-05T07:57:59.002Z,28.00
2018-07-05T07:58:59.011Z,28.00
2018-07-05T07:59:58.985Z,32.00
2018-07-05T08:00:58.976Z,36.00
2018-07-05T08:01:58.966Z,32.00
2018-07-05T08:02:58.949Z,36.00
2018-07-05T08:03:58.968Z,40.00
2018-07-05T08:04:58.932Z,40.00
2018-07-05T08:05:58.934Z,44.00
2018-07-05T08:06:58.914Z,52.00
2018-07-05T08:07:58.946Z,52.00
2018-07-05T08:08:58.915Z,52.00
2018-07-05T08:09:58.873Z,52.00
2018-07-05T08:10:58.863Z,56.00
2018-07-05T08:11:58.855Z,60.00
2018-07-05T08:12:58.846Z,64.00
2018-07-05T08:13:58.837Z,68.00
2018-07-05T08:14:58.849Z,72.00
2018-07-05T08:15:58.815Z,72.00
2018-07-05T08:16:58.799Z,68.00
2018-07-05T08:17:58.786Z,76.00
2018-07-05T08:18:58.793Z,80.00
2018-07-05T08:19:58.787Z,84.00
2018-07-05T08:20:58.754Z,68.00
2018-07-05T08:21:58.741Z,76.00
2018-07-05T08:22:58.732Z,76.00
2018-07-05T08:23:58.722Z,64.00
2018-07-05T08:24:58.752Z,60.00
2018-07-05T08:25:58.705Z,60.00
2018-07-05T08:26:58.735Z,56.00
2018-07-05T08:27:58.681Z,60.00
2018-07-05T08:28:58.668Z,56.00
2018-07-05T08:29:58.659Z,60.00
2018-07-05T08:30:58.657Z,60.00
2018-07-05T08:31:58.639Z,60.00
2018-07-05T08:32:58.629Z,64.00
2018-07-05T08:33:58.623Z,68.00
2018-07-05T08:34:58.632Z,72.00
2018-07-05T08:35:58.594Z,72.00
2018-07-05T08:36:58.585Z,100.00
2018-07-05T08:37:58.637Z,124.00
2018-07-05T08:38:58.566Z,108.00
2018-07-05T08:39:58.553Z,92.00
2018-07-05T08:40:58.542Z,72.00
2018-07-05T08:41:58.526Z,72.00
2018-07-05T08:42:58.517Z,72.00
2018-07-05T08:43:58.508Z,72.00
2018-07-05T08:44:58.501Z,72.00
2018-07-05T08:45:58.517Z,72.00
2018-07-05T08:46:58.481Z,72.00
2018-07-05T08:47:58.468Z,80.00
2018-07-05T08:48:58.455Z,96.00
2018-07-05T08:49:58.458Z,92.00
2018-07-05T08:50:58.454Z,92.00
2018-07-05T08:51:58.424Z,120.00
2018-07-05T08:52:58.412Z,108.00
2018-07-05T08:53:58.400Z,108.00
2018-07-05T08:54:58.389Z,144.00
2018-07-05T08:55:58.412Z,152.00
2018-07-05T08:56:58.371Z,160.00
2018-07-05T08:57:58.365Z,156.00
2018-07-05T08:58:58.353Z,156.00
2018-07-05T08:59:58.344Z,156.00
2018-07-05T09:00:58.330Z,156.00
2018-07-05T09:01:58.316Z,160.00
2018-07-05T09:02:58.302Z,156.00
2018-07-05T09:03:58.319Z,160.00
2018-07-05T09:04:58.287Z,160.00
2018-07-05T09:05:58.277Z,160.00
2018-07-05T09:06:58.278Z,148.00
2018-07-05T09:07:58.248Z,152.00
2018-07-05T09:08:58.239Z,148.00
2018-07-05T09:09:58.232Z,104.00
2018-07-05T09:10:58.226Z,88.00
2018-07-05T09:11:58.341Z,80.00
2018-07-05T09:12:58.200Z,88.00
2018-07-05T09:13:58.180Z,84.00
2018-07-05T09:14:58.170Z,80.00
2018-07-05T09:15:58.162Z,80.00
2018-07-05T09:16:58.180Z,96.00
2018-07-05T09:17:58.261Z,124.00
2018-07-05T09:18:58.132Z,120.00
2018-07-05T09:19:58.120Z,104.00
2018-07-05T09:20:58.121Z,92.00
2018-07-05T09:21:58.095Z,100.00
2018-07-05T09:22:58.093Z,112.00
2018-07-05T09:23:58.079Z,108.00
2018-07-05T09:24:58.074Z,116.00
2018-07-05T09:25:58.052Z,96.00
2018-07-05T09:26:58.041Z,120.00
2018-07-05T09:27:58.050Z,144.00
2018-07-05T09:28:58.022Z,128.00
2018-07-05T09:29:58.013Z,144.00
2018-07-05T09:30:58.000Z,124.00
2018-07-05T09:31:57.993Z,152.00
2018-07-05T09:32:57.995Z,160.00
2018-07-05T09:33:57.996Z,160.00
2018-07-05T09:34:57.956Z,160.00
2018-07-05T09:35:57.941Z,160.00
2018-07-05T09:36:57.936Z,160.00
2018-07-05T09:37:57.953Z,160.00
2018-07-05T09:38:57.908Z,160.00
2018-07-05T09:39:57.894Z,156.00
2018-07-05T09:40:57.890Z,156.00
2018-07-05T09:41:57.878Z,148.00
2018-07-05T09:42:57.864Z,144.00
2018-07-05T09:43:57.859Z,140.00
2018-07-05T09:44:57.838Z,144.00
2018-07-05T09:45:57.828Z,140.00
2018-07-05T09:46:57.906Z,136.00
2018-07-05T09:47:57.803Z,140.00
2018-07-05T09:48:57.819Z,148.00
2018-07-05T09:49:57.785Z,148.00
2018-07-05T09:50:57.773Z,140.00
2018-07-05T09:51:57.769Z,132.00
2018-07-05T09:52:57.773Z,144.00
2018-07-05T09:53:57.757Z,140.00
2018-07-05T09:54:57.728Z,132.00
2018-07-05T09:55:57.720Z,132.00
2018-07-05T09:56:57.703Z,136.00
2018-07-05T09:57:57.729Z,120.00
2018-07-05T09:58:57.722Z,120.00
2018-07-05T09:59:57.669Z,100.00
2018-07-05T10:00:57.664Z,108.00
2018-07-05T10:01:57.649Z,132.00
2018-07-05T10:02:57.637Z,128.00
2018-07-05T10:03:57.628Z,132.00
2018-07-05T10:04:57.612Z,132.00
2018-07-05T10:05:57.602Z,132.00
2018-07-05T10:06:57.590Z,132.00
2018-07-05T10:07:57.576Z,128.00
2018-07-05T10:08:57.571Z,128.00
2018-07-05T10:09:57.576Z,128.00
2018-07-05T10:10:57.550Z,124.00
2018-07-05T10:11:57.535Z,124.00
2018-07-05T10:12:57.549Z,124.00
2018-07-05T10:13:57.713Z,120.00
2018-07-05T10:14:57.542Z,120.00
2018-07-05T10:15:57.494Z,116.00
2018-07-05T10:16:57.477Z,112.00
2018-07-05T10:17:57.468Z,116.00
2018-07-05T10:18:57.457Z,112.00
2018-07-05T10:19:57.470Z,112.00
2018-07-05T10:20:57.445Z,112.00
2018-07-05T10:21:57.427Z,108.00
2018-07-05T10:22:57.415Z,108.00
2018-07-05T10:23:57.406Z,108.00
2018-07-05T10:24:57.392Z,104.00
2018-07-05T10:25:57.386Z,104.00
2018-07-05T10:26:57.455Z,96.00
2018-07-05T10:27:57.368Z,96.00
2018-07-05T10:28:57.345Z,100.00
2018-07-05T10:29:57.340Z,96.00
2018-07-05T10:30:57.345Z,96.00
2018-07-05T10:31:57.317Z,96.00
2018-07-05T10:32:57.402Z,100.00
2018-07-05T10:33:57.297Z,100.00
2018-07-05T10:34:57.284Z,96.00
2018-07-05T10:35:57.296Z,100.00
2018-07-05T10:36:57.287Z,108.00
2018-07-05T10:37:57.250Z,104.00
2018-07-05T10:38:57.238Z,104.00
2018-07-05T10:39:57.226Z,104.00
2018-07-05T10:40:57.240Z,108.00
2018-07-05T10:41:57.210Z,108.00
2018-07-05T10:42:57.193Z,108.00
2018-07-05T10:43:57.183Z,108.00
2018-07-05T10:44:57.177Z,104.00
2018-07-05T10:45:57.191Z,104.00
2018-07-05T10:46:57.150Z,100.00
2018-07-05T10:47:57.143Z,100.00
2018-07-05T10:48:57.125Z,104.00
2018-07-05T10:49:57.116Z,100.00
2018-07-05T10:50:57.132Z,96.00
2018-07-05T10:51:57.093Z,92.00
2018-07-05T10:52:57.089Z,84.00
2018-07-05T10:53:57.075Z,80.00
2018-07-05T10:54:57.082Z,96.00
2018-07-05T10:55:57.054Z,92.00
2018-07-05T10:56:57.037Z,92.00
2018-07-05T10:57:57.025Z,76.00
2018-07-05T10:58:57.017Z,76.00
2018-07-05T10:59:57.007Z,84.00
2018-07-05T11:00:56.990Z,76.00
2018-07-05T11:01:56.999Z,80.00
2018-07-05T11:02:56.969Z,84.00
2018-07-05T11:03:56.956Z,88.00
2018-07-05T11:04:56.950Z,84.00
2018-07-05T11:05:56.942Z,84.00
2018-07-05T11:06:56.953Z,84.00
2018-07-05T11:07:56.919Z,84.00
2018-07-05T11:08:56.901Z,80.00
2018-07-05T11:09:56.890Z,84.00
2018-07-05T11:10:56.879Z,76.00
2018-07-05T11:11:56.868Z,72.00
2018-07-05T11:12:56.863Z,80.00
2018-07-05T11:13:56.849Z,80.00
2018-07-05T11:14:56.836Z,92.00
2018-07-05T11:15:56.822Z,96.00
2018-07-05T11:16:56.819Z,92.00
2018-07-05T11:17:56.827Z,88.00
2018-07-05T11:18:56.794Z,96.00
2018-07-05T11:19:56.785Z,104.00
2018-07-05T11:20:56.774Z,100.00
2018-07-05T11:21:56.810Z,104.00
2018-07-05T11:22:56.777Z,104.00
2018-07-05T11:23:56.734Z,104.00
2018-07-05T11:24:56.730Z,104.00
2018-07-05T11:25:56.716Z,104.00
2018-07-05T11:26:56.709Z,108.00
2018-07-05T11:27:56.696Z,100.00
2018-07-05T11:28:56.680Z,108.00
2018-07-05T11:29:56.671Z,112.00
2018-07-05T11:30:56.661Z,112.00
2018-07-05T11:31:56.657Z,112.00
2018-07-05T11:32:56.652Z,112.00
2018-07-05T11:33:56.646Z,116.00
2018-07-05T11:34:56.617Z,116.00
2018-07-05T11:35:56.604Z,116.00
2018-07-05T11:36:56.597Z,116.00
2018-07-05T11:37:56.585Z,108.00
2018-07-05T11:38:56.606Z,104.00
2018-07-05T11:39:56.567Z,100.00
2018-07-05T11:40:56.569Z,104.00
2018-07-05T11:41:56.540Z,100.00
2018-07-05T11:42:56.528Z,104.00
2018-07-05T11:43:56.520Z,108.00
2018-07-05T11:44:56.515Z,112.00
2018-07-05T11:45:56.496Z,88.00
2018-07-05T11:46:56.487Z,96.00
2018-07-05T11:47:56.555Z,104.00
2018-07-05T11:48:56.471Z,100.00
2018-07-05T11:49:56.475Z,96.00
2018-07-05T11:50:56.445Z,92.00
2018-07-05T11:51:56.434Z,84.00
2018-07-05T11:52:56.417Z,72.00
2018-07-05T11:53:56.406Z,68.00
2018-07-05T11:54:56.476Z,68.00
2018-07-05T11:55:56.402Z,64.00
2018-07-05T11:56:56.380Z,80.00
2018-07-05T11:57:56.367Z,64.00
2018-07-05T11:58:56.358Z,64.00
2018-07-05T11:59:56.348Z,68.00
2018-07-05T12:00:56.331Z,64.00
2018-07-05T12:01:56.360Z,68.00
2018-07-05T12:02:56.331Z,68.00
2018-07-05T12:03:56.316Z,60.00
2018-07-05T12:04:56.287Z,60.00
2018-07-05T12:05:56.297Z,56.00
2018-07-05T12:06:56.266Z,56.00
2018-07-05T12:07:56.254Z,56.00
2018-07-05T12:08:56.254Z,60.00
2018-07-05T12:09:56.249Z,64.00
2018-07-05T12:10:56.229Z,68.00
2018-07-05T12:11:56.216Z,64.00
2018-07-05T12:12:56.203Z,72.00
2018-07-05T12:13:56.191Z,72.00
2018-07-05T12:14:56.181Z,76.00
2018-07-05T12:15:56.187Z,76.00
2018-07-05T12:16:56.162Z,76.00
2018-07-05T12:17:56.151Z,72.00
2018-07-05T12:18:56.137Z,68.00
2018-07-05T12:19:56.125Z,72.00
2018-07-05T12:20:56.120Z,72.00
2018-07-05T12:21:56.107Z,68.00
2018-07-05T12:22:56.096Z,68.00
2018-07-05T12:23:56.122Z,68.00
2018-07-05T12:24:56.069Z,64.00
2018-07-05T12:25:56.077Z,64.00
2018-07-05T12:26:56.056Z,64.00
2018-07-05T12:27:56.034Z,64.00
2018-07-05T12:28:56.031Z,68.00
2018-07-05T12:29:56.016Z,72.00
2018-07-05T12:30:56.024Z,80.00
2018-07-05T12:31:55.999Z,88.00
2018-07-05T12:32:55.978Z,84.00
2018-07-05T12:33:55.970Z,76.00
2018-07-05T12:34:55.963Z,64.00
2018-07-05T12:35:55.984Z,64.00
2018-07-05T12:36:55.936Z,64.00
2018-07-05T12:37:55.933Z,72.00
2018-07-05T12:38:55.918Z,52.00
2018-07-05T12:39:55.916Z,48.00
2018-07-05T12:40:55.899Z,44.00
2018-07-05T12:41:55.905Z,44.00
2018-07-05T12:42:55.880Z,40.00
2018-07-05T12:43:55.871Z,40.00
2018-07-05T12:44:55.849Z,40.00
2018-07-05T12:45:55.842Z,36.00
2018-07-05T12:46:55.854Z,36.00
2018-07-05T12:47:55.826Z,36.00
2018-07-05T12:48:55.813Z,36.00
2018-07-05T12:49:55.807Z,36.00
2018-07-05T12:50:55.786Z,36.00
2018-07-05T12:51:55.831Z,36.00
2018-07-05T12:52:55.775Z,36.00
2018-07-05T12:53:55.755Z,36.00
2018-07-05T12:54:55.752Z,32.00
2018-07-05T12:55:55.734Z,32.00
2018-07-05T12:56:55.726Z,32.00
2018-07-05T12:57:55.709Z,32.00
2018-07-05T12:58:55.700Z,36.00
2018-07-05T12:59:55.684Z,36.00